Time;durP1;ratioP1;P1;durP2;ratioP2;P2;SDS_P1;SDS_P2;PMS_P1;PMS_P2;Temp;Humidity;BMP_temperature;BMP_pressure;BME280_temperature;BME280_humidity;BME280_pressure;Samples;Min_cycle;Max_cycle;Signal;HPM_P1;HPM_P2
2022/01/07 00:01:51;;;;;;;13.27;5.22;;;3.00;95.80;;;;;;4973640;28;20070;-63
2022/01/07 00:04:17;;;;;;;12.73;5.95;;;3.00;95.80;;;;;;4974246;28;20030;-63
2022/01/07 00:06:43;;;;;;;10.88;5.93;;;3.10;95.80;;;;;;4973855;28;20073;-64
2022/01/07 00:09:08;;;;;;;14.45;4.88;;;3.10;95.80;;;;;;4973385;28;20478;-64
2022/01/07 00:11:35;;;;;;;12.02;5.07;;;3.10;95.70;;;;;;4972625;28;20042;-64
2022/01/07 00:14:01;;;;;;;9.65;4.93;;;3.10;95.70;;;;;;4974284;28;20039;-64
2022/01/07 00:16:26;;;;;;;12.32;5.18;;;3.10;95.70;;;;;;4972029;28;20097;-65
2022/01/07 00:18:52;;;;;;;12.52;5.38;;;3.10;95.70;;;;;;4973178;28;20483;-65
2022/01/07 00:21:18;;;;;;;15.15;5.68;;;3.10;95.70;;;;;;4973575;28;20034;-65
2022/01/07 00:23:43;;;;;;;12.65;4.65;;;3.00;95.70;;;;;;4973581;28;20446;-65
2022/01/07 00:26:08;;;;;;;10.45;4.35;;;3.10;95.70;;;;;;4973546;28;20035;-64
2022/01/07 00:28:34;;;;;;;12.38;5.07;;;3.10;95.60;;;;;;4972860;28;20027;-64
2022/01/07 00:31:00;;;;;;;11.60;5.60;;;3.10;95.70;;;;;;4972477;28;20102;-65
2022/01/07 00:33:25;;;;;;;12.10;5.10;;;3.10;95.70;;;;;;4972850;28;20035;-65
2022/01/07 00:35:52;;;;;;;11.98;4.88;;;3.00;95.70;;;;;;4973676;28;20081;-65
2022/01/07 00:38:18;;;;;;;9.23;4.65;;;3.00;95.70;;;;;;4972587;28;20043;-65
2022/01/07 00:40:43;;;;;;;12.98;5.05;;;3.00;95.70;;;;;;4972451;28;20482;-65
2022/01/07 00:43:09;;;;;;;11.48;4.97;;;3.00;95.60;;;;;;4971581;28;20022;-64
2022/01/07 00:45:34;;;;;;;11.30;5.57;;;3.00;95.70;;;;;;4964790;28;20027;-65
2022/01/07 00:48:00;;;;;;;11.25;4.97;;;3.00;95.70;;;;;;4967159;28;20054;-65
2022/01/07 00:50:28;;;;;;;12.75;4.82;;;3.00;95.70;;;;;;4973856;28;20085;-65
2022/01/07 00:52:54;;;;;;;11.30;4.78;;;3.00;95.80;;;;;;4972760;28;20057;-65
2022/01/07 00:55:20;;;;;;;11.82;4.88;;;3.00;95.80;;;;;;4973205;28;20478;-64
2022/01/07 00:57:47;;;;;;;14.80;5.53;;;3.00;95.80;;;;;;4961956;28;20479;-64
2022/01/07 01:00:15;;;;;;;10.80;4.90;;;3.00;95.80;;;;;;4958989;28;20051;-65
2022/01/07 01:02:42;;;;;;;11.52;5.10;;;3.00;95.90;;;;;;4971894;28;20476;-65
2022/01/07 01:05:09;;;;;;;9.10;4.70;;;2.90;95.90;;;;;;4973710;28;20045;-64
2022/01/07 01:07:35;;;;;;;16.77;5.75;;;3.00;95.90;;;;;;4971380;28;20058;-65
2022/01/07 01:10:01;;;;;;;10.50;4.72;;;3.00;95.90;;;;;;4973316;28;20058;-65
2022/01/07 01:12:27;;;;;;;10.90;4.65;;;3.00;95.90;;;;;;4971634;28;20077;-65
2022/01/07 01:14:53;;;;;;;14.27;4.50;;;2.90;95.80;;;;;;4972005;28;20058;-65
2022/01/07 01:17:19;;;;;;;13.95;5.20;;;2.90;95.80;;;;;;4964316;28;20023;-65
2022/01/07 01:19:44;;;;;;;10.07;5.20;;;2.90;95.80;;;;;;4964855;28;20034;-65
2022/01/07 01:22:10;;;;;;;14.02;4.93;;;3.00;95.90;;;;;;4972196;28;20026;-65
2022/01/07 01:24:36;;;;;;;10.95;5.53;;;2.90;95.80;;;;;;4973253;28;20027;-64
2022/01/07 01:27:02;;;;;;;15.38;5.82;;;2.90;95.90;;;;;;4972163;28;20038;-65
2022/01/07 01:29:27;;;;;;;14.70;5.35;;;2.90;95.90;;;;;;4973067;28;20106;-65
2022/01/07 01:31:53;;;;;;;12.60;5.63;;;2.90;95.90;;;;;;4971537;28;20597;-65
2022/01/07 01:34:19;;;;;;;18.00;5.72;;;2.80;95.90;;;;;;4973033;28;20599;-65
2022/01/07 01:36:45;;;;;;;13.40;5.43;;;2.80;95.90;;;;;;4970518;28;20474;-64
2022/01/07 01:39:12;;;;;;;14.32;5.75;;;2.80;95.90;;;;;;4971996;28;20094;-64
2022/01/07 01:41:38;;;;;;;15.07;5.60;;;2.80;96.00;;;;;;4970184;28;20091;-64
2022/01/07 01:44:04;;;;;;;11.13;5.45;;;2.80;96.00;;;;;;4959450;28;20152;-64
2022/01/07 01:46:30;;;;;;;17.67;5.32;;;2.80;96.00;;;;;;4971659;28;20058;-64
2022/01/07 01:48:55;;;;;;;17.08;5.97;;;2.80;96.00;;;;;;4972562;28;20038;-64
2022/01/07 01:51:21;;;;;;;11.25;5.30;;;2.80;96.00;;;;;;4970771;28;20022;-64
2022/01/07 01:53:46;;;;;;;15.63;5.38;;;2.80;96.00;;;;;;4959736;28;20030;-64
2022/01/07 01:56:12;;;;;;;12.77;5.95;;;2.80;96.00;;;;;;4968368;28;20548;-63
2022/01/07 01:58:37;;;;;;;12.85;6.30;;;2.80;96.00;;;;;;4972520;28;20041;-63
2022/01/07 02:01:03;;;;;;;16.13;6.50;;;2.70;96.00;;;;;;4970643;28;20533;-63
2022/01/07 02:03:28;;;;;;;14.55;6.13;;;2.70;96.10;;;;;;4972848;28;20023;-63
2022/01/07 02:05:54;;;;;;;21.80;5.60;;;2.70;96.10;;;;;;4972367;28;20030;-64
2022/01/07 02:08:20;;;;;;;14.90;6.80;;;2.70;96.10;;;;;;4972844;28;20073;-64
2022/01/07 02:10:46;;;;;;;11.55;5.85;;;2.70;96.10;;;;;;4970122;28;20030;-64
2022/01/07 02:13:12;;;;;;;12.60;5.40;;;2.70;96.20;;;;;;4972587;28;20029;-64
2022/01/07 02:15:37;;;;;;;9.75;5.47;;;2.60;96.20;;;;;;4970859;28;20030;-64
2022/01/07 02:18:04;;;;;;;13.18;5.40;;;2.60;96.20;;;;;;4971572;28;20034;-64
2022/01/07 02:20:30;;;;;;;18.23;5.35;;;2.60;96.30;;;;;;4971308;28;20493;-64
2022/01/07 02:22:57;;;;;;;12.98;5.57;;;2.60;96.20;;;;;;4972491;28;20030;-64
2022/01/07 02:25:22;;;;;;;14.05;5.22;;;2.60;96.30;;;;;;4971575;28;20031;-64
2022/01/07 02:27:48;;;;;;;12.88;5.40;;;2.60;96.30;;;;;;4971427;28;20089;-63
2022/01/07 02:30:17;;;;;;;11.40;4.97;;;2.60;96.30;;;;;;4970986;28;20027;-63
2022/01/07 02:32:43;;;;;;;11.30;4.90;;;2.60;96.40;;;;;;4972262;28;20084;-63
2022/01/07 02:35:09;;;;;;;16.10;5.82;;;2.60;96.30;;;;;;4971260;28;20031;-63
2022/01/07 02:37:35;;;;;;;12.95;5.47;;;2.60;96.30;;;;;;4971683;28;20030;-64
2022/01/07 02:40:02;;;;;;;13.70;5.82;;;2.60;96.30;;;;;;4970178;28;20199;-64
2022/01/07 02:42:28;;;;;;;12.85;6.18;;;2.70;96.40;;;;;;4971294;28;20031;-63
2022/01/07 02:44:54;;;;;;;9.05;5.03;;;2.70;96.30;;;;;;4972020;28;20038;-63
2022/01/07 02:47:21;;;;;;;10.05;5.35;;;2.60;96.30;;;;;;4971822;28;20114;-63
2022/01/07 02:49:49;;;;;;;12.60;5.25;;;2.60;96.40;;;;;;4972683;28;20525;-64
2022/01/07 02:52:15;;;;;;;10.88;5.25;;;2.70;96.40;;;;;;4974675;28;20027;-63
2022/01/07 02:54:41;;;;;;;16.00;6.00;;;2.60;96.40;;;;;;4974627;28;20041;-64
2022/01/07 02:57:06;;;;;;;11.07;5.57;;;2.60;96.40;;;;;;4975549;28;20137;-64
2022/01/07 02:59:32;;;;;;;14.02;5.45;;;2.60;96.50;;;;;;4974133;28;20140;-63
2022/01/07 03:01:58;;;;;;;11.57;5.93;;;2.60;96.50;;;;;;4975540;28;20058;-63
2022/01/07 03:04:26;;;;;;;15.32;6.13;;;2.60;96.50;;;;;;4974393;28;20038;-64
2022/01/07 03:06:52;;;;;;;12.68;5.43;;;2.70;96.60;;;;;;4974631;28;20046;-64
2022/01/07 03:09:17;;;;;;;8.60;5.50;;;2.70;96.60;;;;;;4974595;28;20034;-63
2022/01/07 03:11:43;;;;;;;11.43;5.22;;;2.70;96.60;;;;;;4974909;28;20035;-63
2022/01/07 03:14:09;;;;;;;13.35;5.68;;;2.70;96.60;;;;;;4961438;28;20046;-64
2022/01/07 03:16:34;;;;;;;9.48;4.45;;;2.80;96.60;;;;;;4965434;28;20034;-64
2022/01/07 03:19:00;;;;;;;14.38;5.57;;;2.70;96.50;;;;;;4974200;28;20097;-64
2022/01/07 03:21:25;;;;;;;11.15;5.35;;;2.70;96.50;;;;;;4975132;28;20022;-64
2022/01/07 03:23:51;;;;;;;11.63;5.18;;;2.70;96.50;;;;;;4974302;28;20122;-64
2022/01/07 03:26:16;;;;;;;14.25;5.95;;;2.70;96.50;;;;;;4974855;28;20035;-63
2022/01/07 03:28:44;;;;;;;11.02;4.68;;;2.70;96.50;;;;;;4974509;28;20039;-63
2022/01/07 03:31:10;;;;;;;15.82;5.32;;;2.70;96.50;;;;;;4974981;28;20023;-64
2022/01/07 03:33:35;;;;;;;13.80;5.65;;;2.70;96.50;;;;;;4964642;28;20101;-64
2022/01/07 03:36:01;;;;;;;12.25;5.72;;;2.70;96.50;;;;;;4958467;28;20031;-64
2022/01/07 03:38:26;;;;;;;14.57;5.35;;;2.60;96.50;;;;;;4973685;28;20074;-64
2022/01/07 03:40:52;;;;;;;12.65;5.45;;;2.70;96.50;;;;;;4958837;28;20098;-63
2022/01/07 03:43:17;;;;;;;10.45;5.00;;;2.70;96.40;;;;;;4962936;28;20031;-63
2022/01/07 03:45:43;;;;;;;11.73;5.32;;;2.60;96.40;;;;;;4974234;28;20447;-64
2022/01/07 03:48:09;;;;;;;10.52;6.00;;;2.60;96.40;;;;;;4974173;28;20031;-63
2022/01/07 03:50:34;;;;;;;9.75;5.72;;;2.60;96.50;;;;;;4974802;28;20458;-63
2022/01/07 03:53:00;;;;;;;13.45;5.95;;;2.60;96.50;;;;;;4973686;28;20046;-63
2022/01/07 03:55:29;;;;;;;13.10;5.80;;;2.60;96.50;;;;;;4973757;28;20457;-63
2022/01/07 03:57:55;;;;;;;9.13;5.95;;;2.60;96.50;;;;;;4973798;28;20037;-62
2022/01/07 04:00:26;;;;;;;10.57;6.68;;;2.60;96.50;;;;;;4974098;28;20059;-63
2022/01/07 04:02:52;;;;;;;10.40;5.53;;;2.50;96.50;;;;;;4972075;28;20038;-63
2022/01/07 04:05:21;;;;;;;14.40;5.95;;;2.50;96.50;;;;;;4974761;28;20482;-64
2022/01/07 04:07:46;;;;;;;14.90;6.25;;;2.50;96.60;;;;;;4972509;28;20486;-64
2022/01/07 04:10:12;;;;;;;12.63;6.18;;;2.50;96.60;;;;;;4974254;28;20031;-63
2022/01/07 04:12:37;;;;;;;12.80;6.80;;;2.60;96.70;;;;;;4973439;28;20038;-63
2022/01/07 04:15:10;;;;;;;11.38;6.10;;;2.60;96.70;;;;;;4974478;28;20533;-63
2022/01/07 04:17:37;;;;;;;11.68;5.88;;;2.60;96.70;;;;;;4973331;28;20450;-64
2022/01/07 04:20:05;;;;;;;12.40;6.55;;;2.60;96.70;;;;;;4973866;28;20043;-64
2022/01/07 04:22:32;;;;;;;10.63;6.13;;;2.60;96.70;;;;;;4972669;28;20023;-63
2022/01/07 04:24:59;;;;;;;12.05;5.85;;;2.60;96.70;;;;;;4954724;28;20086;-63
2022/01/07 04:27:24;;;;;;;11.20;6.35;;;2.60;96.70;;;;;;4960476;28;20022;-63
2022/01/07 04:29:50;;;;;;;9.10;6.18;;;2.70;96.70;;;;;;4972002;28;20042;-63
2022/01/07 04:32:15;;;;;;;12.13;5.88;;;2.70;96.70;;;;;;4973806;28;20077;-63
2022/01/07 04:34:41;;;;;;;9.60;5.47;;;2.70;96.70;;;;;;4973031;28;20043;-63
2022/01/07 04:37:06;;;;;;;16.35;6.43;;;2.70;96.70;;;;;;4973593;28;20033;-64
2022/01/07 04:39:32;;;;;;;8.50;5.57;;;2.70;96.70;;;;;;4972725;28;20035;-64
2022/01/07 04:41:59;;;;;;;14.27;6.50;;;2.70;96.70;;;;;;4973830;28;20048;-64
2022/01/07 04:44:25;;;;;;;10.38;5.38;;;2.70;96.70;;;;;;4972961;28;20042;-64
2022/01/07 04:46:50;;;;;;;10.35;5.40;;;2.80;96.70;;;;;;4973661;28;20018;-64
2022/01/07 04:49:16;;;;;;;12.27;5.65;;;2.80;96.70;;;;;;4971317;28;20457;-64
2022/01/07 04:51:42;;;;;;;9.55;4.95;;;2.80;96.70;;;;;;4973468;28;20041;-64
2022/01/07 04:54:07;;;;;;;10.70;5.32;;;2.80;96.70;;;;;;4973122;28;20039;-64
2022/01/07 04:56:33;;;;;;;11.18;5.80;;;2.80;96.60;;;;;;4969832;28;20549;-64
2022/01/07 04:58:58;;;;;;;9.00;5.47;;;2.80;96.70;;;;;;4971464;28;20457;-64
2022/01/07 05:01:23;;;;;;;10.63;5.43;;;2.80;96.70;;;;;;4971740;28;20499;-65
2022/01/07 05:03:49;;;;;;;8.52;5.22;;;2.80;96.70;;;;;;4970579;28;20042;-64
2022/01/07 05:08:59;;;;;;;9.98;5.53;;;2.90;96.60;;;;;;4968839;28;20122;-65
2022/01/07 05:11:24;;;;;;;11.35;5.00;;;2.90;96.60;;;;;;4972922;28;20118;-64
2022/01/07 05:13:49;;;;;;;13.38;5.35;;;2.90;96.60;;;;;;4972303;28;20037;-65
2022/01/07 05:16:15;;;;;;;9.20;5.10;;;2.90;96.60;;;;;;4971643;28;20027;-64
2022/01/07 05:18:40;;;;;;;11.45;4.68;;;2.90;96.50;;;;;;4967378;28;20031;-64
2022/01/07 05:21:06;;;;;;;12.30;5.18;;;2.90;96.50;;;;;;4962827;28;20039;-64
2022/01/07 05:23:31;;;;;;;12.32;4.25;;;2.90;96.50;;;;;;4972245;28;20023;-64
2022/01/07 05:25:57;;;;;;;15.45;5.18;;;2.90;96.50;;;;;;4972935;28;20093;-64
2022/01/07 05:28:22;;;;;;;13.65;5.93;;;3.00;96.50;;;;;;4971979;28;20077;-64
2022/01/07 05:30:48;;;;;;;10.43;4.80;;;3.00;96.50;;;;;;4971088;28;20034;-64
2022/01/07 05:33:13;;;;;;;8.77;4.65;;;2.90;96.40;;;;;;4971916;28;20126;-64
2022/01/07 05:35:39;;;;;;;9.23;5.32;;;2.90;96.40;;;;;;4972493;28;20534;-64
2022/01/07 05:38:04;;;;;;;11.90;5.30;;;2.90;96.40;;;;;;4971081;28;20034;-64
2022/01/07 05:40:30;;;;;;;9.57;4.72;;;2.90;96.40;;;;;;4963139;28;20031;-63
2022/01/07 05:42:55;;;;;;;7.88;5.03;;;2.90;96.40;;;;;;4966531;28;20143;-64
2022/01/07 05:45:21;;;;;;;9.02;4.35;;;2.90;96.40;;;;;;4971885;28;20118;-64
2022/01/07 05:47:46;;;;;;;7.93;4.57;;;3.00;96.40;;;;;;4971861;28;20047;-64
2022/01/07 05:50:13;;;;;;;9.27;4.55;;;3.00;96.40;;;;;;4972384;28;20501;-64
2022/01/07 05:52:38;;;;;;;11.75;5.80;;;3.00;96.40;;;;;;4971793;28;20027;-64
2022/01/07 05:55:04;;;;;;;8.00;4.57;;;3.00;96.30;;;;;;4972872;28;20027;-64
2022/01/07 05:57:30;;;;;;;9.50;4.78;;;3.00;96.30;;;;;;4971560;28;20030;-64
2022/01/07 05:59:55;;;;;;;9.70;5.25;;;3.00;96.30;;;;;;4972021;28;20553;-64
2022/01/07 06:02:21;;;;;;;9.88;4.57;;;3.00;96.20;;;;;;4971837;28;20410;-64
2022/01/07 06:04:47;;;;;;;12.27;5.25;;;3.00;96.30;;;;;;4970879;28;20046;-63
2022/01/07 06:07:12;;;;;;;11.35;4.25;;;3.00;96.20;;;;;;4970699;28;20114;-61
2022/01/07 06:09:38;;;;;;;13.45;5.57;;;3.10;96.30;;;;;;4971374;28;20031;-64
2022/01/07 06:12:04;;;;;;;8.25;4.30;;;3.10;96.20;;;;;;4964802;28;20474;-63
2022/01/07 06:14:30;;;;;;;9.43;4.95;;;3.10;96.20;;;;;;4970238;28;20023;-65
2022/01/07 06:16:55;;;;;;;9.10;4.90;;;3.10;96.20;;;;;;4971937;28;20031;-63
2022/01/07 06:19:21;;;;;;;8.43;4.30;;;3.10;96.10;;;;;;4971227;28;20110;-63
2022/01/07 06:21:46;;;;;;;9.10;4.57;;;3.10;96.10;;;;;;4971996;28;20026;-65
2022/01/07 06:24:12;;;;;;;9.32;4.43;;;3.20;96.10;;;;;;4971858;28;20035;-64
2022/01/07 06:26:38;;;;;;;11.02;4.50;;;3.20;96.10;;;;;;4974465;28;20030;-62
2022/01/07 06:29:04;;;;;;;7.95;4.35;;;3.20;96.10;;;;;;4975098;28;20495;-66
2022/01/07 06:31:29;;;;;;;9.20;4.13;;;3.10;96.10;;;;;;4974896;28;20037;-66
2022/01/07 06:33:55;;;;;;;14.15;4.05;;;3.20;96.10;;;;;;4974864;28;20026;-65
2022/01/07 06:36:20;;;;;;;8.13;4.10;;;3.10;96.00;;;;;;4975761;28;20038;-66
2022/01/07 06:38:46;;;;;;;10.07;4.28;;;3.10;96.00;;;;;;4974934;28;20500;-66
2022/01/07 06:41:11;;;;;;;11.27;4.07;;;3.10;96.00;;;;;;4973425;28;20046;-66
2022/01/07 06:43:37;;;;;;;10.90;4.82;;;3.20;96.20;;;;;;4981613;28;20018;-66
2022/01/07 06:46:03;;;;;;;9.85;4.05;;;3.20;96.00;;;;;;4977182;28;20390;-66
2022/01/07 06:48:28;;;;;;;8.85;4.32;;;3.20;96.00;;;;;;4974357;28;20035;-66
2022/01/07 06:50:53;;;;;;;10.60;4.47;;;3.20;96.00;;;;;;4975748;28;20019;-66
2022/01/07 06:53:19;;;;;;;9.85;4.68;;;3.20;96.00;;;;;;4974746;28;20116;-66
2022/01/07 06:55:44;;;;;;;8.10;4.20;;;3.20;96.00;;;;;;4974801;28;20381;-66
2022/01/07 06:58:10;;;;;;;9.45;4.18;;;3.20;95.90;;;;;;4974826;28;20035;-67
2022/01/07 07:00:35;;;;;;;10.48;5.28;;;3.20;95.90;;;;;;4970124;28;20048;-68
2022/01/07 07:03:01;;;;;;;8.48;4.47;;;3.20;95.90;;;;;;4961034;28;20198;-66
2022/01/07 07:05:26;;;;;;;8.27;4.05;;;3.20;95.80;;;;;;4975378;28;20037;-67
2022/01/07 07:07:52;;;;;;;13.73;4.63;;;3.20;95.80;;;;;;4964903;28;20031;-66
2022/01/07 07:10:17;;;;;;;10.02;4.70;;;3.20;95.90;;;;;;4964291;28;20481;-66
2022/01/07 07:12:43;;;;;;;11.02;4.50;;;3.20;95.90;;;;;;4973715;28;20038;-66
2022/01/07 07:15:09;;;;;;;9.02;4.53;;;3.20;95.90;;;;;;4974671;28;20085;-66
2022/01/07 07:17:34;;;;;;;10.80;4.55;;;3.20;95.80;;;;;;4973251;28;20386;-66
2022/01/07 07:20:00;;;;;;;13.27;4.40;;;3.20;95.80;;;;;;4971654;28;20058;-65
2022/01/07 07:22:26;;;;;;;11.15;5.10;;;3.30;95.80;;;;;;4973949;28;20035;-66
2022/01/07 07:24:52;;;;;;;11.63;5.05;;;3.30;95.80;;;;;;4955538;28;20490;-66
2022/01/07 07:27:17;;;;;;;10.20;4.78;;;3.30;95.80;;;;;;4972333;28;20054;-67
2022/01/07 07:29:43;;;;;;;16.17;5.22;;;3.30;95.80;;;;;;4973414;28;20027;-66
2022/01/07 07:32:10;;;;;;;9.50;4.32;;;3.30;95.80;;;;;;4973417;28;20030;-66
2022/01/07 07:37:04;;;;;;;12.27;4.90;;;3.30;95.80;;;;;;4974242;28;20098;-66
2022/01/07 07:39:30;;;;;;;8.32;4.80;;;3.40;95.80;;;;;;4973392;28;20478;-66
2022/01/07 07:41:56;;;;;;;11.50;4.93;;;3.40;95.80;;;;;;4967200;28;20118;-66
2022/01/07 07:44:21;;;;;;;10.23;4.20;;;3.40;95.80;;;;;;4972758;28;20093;-66
2022/01/07 07:46:47;;;;;;;8.98;4.20;;;3.40;95.80;;;;;;4974169;28;20038;-65
2022/01/07 07:49:14;;;;;;;9.93;4.60;;;3.40;95.80;;;;;;4973161;28;20110;-66
2022/01/07 07:51:39;;;;;;;9.82;4.80;;;3.40;95.70;;;;;;4973559;28;20023;-66
2022/01/07 07:54:05;;;;;;;11.73;4.07;;;3.40;95.70;;;;;;4973042;28;20037;-66
2022/01/07 07:56:31;;;;;;;10.25;4.00;;;3.40;95.70;;;;;;4966729;28;20136;-67
2022/01/07 07:58:58;;;;;;;9.48;4.20;;;3.40;95.70;;;;;;4967240;28;20206;-67
2022/01/07 08:01:24;;;;;;;8.23;4.30;;;3.40;95.70;;;;;;4973809;28;20058;-67
2022/01/07 08:03:50;;;;;;;8.73;4.18;;;3.50;95.70;;;;;;4970714;28;20054;-67
2022/01/07 08:06:15;;;;;;;9.85;4.85;;;3.50;95.70;;;;;;4974307;28;20471;-67
2022/01/07 08:08:41;;;;;;;12.27;5.13;;;3.60;95.60;;;;;;4968886;28;20098;-67
2022/01/07 08:11:09;;;;;;;15.02;5.13;;;3.60;95.60;;;;;;4973619;28;20054;-66
2022/01/07 08:16:20;;;;;;;10.23;4.50;;;3.60;95.60;;;;;;4969247;28;20439;-67
2022/01/07 08:18:54;;;;;;;9.65;4.20;;;3.60;95.50;;;;;;4962894;28;20391;-67
2022/01/07 08:21:21;;;;;;;7.25;3.90;;;3.70;95.70;;;;;;4964976;28;20035;-67
2022/01/07 08:23:47;;;;;;;11.68;4.28;;;3.70;95.50;;;;;;4972998;28;20390;-67
2022/01/07 08:26:15;;;;;;;14.35;4.80;;;3.70;95.50;;;;;;4973459;28;20038;-67
2022/01/07 08:28:47;;;;;;;9.20;4.43;;;3.80;95.50;;;;;;4972707;28;20041;-67
2022/01/07 08:36:28;;;;;;;9.48;4.03;;;3.80;95.40;;;;;;4968017;28;20053;-67
2022/01/07 08:38:55;;;;;;;11.32;4.45;;;3.90;95.30;;;;;;4972068;28;20414;-67
2022/01/07 08:41:24;;;;;;;8.88;4.28;;;3.90;95.30;;;;;;4973586;28;20034;-67
2022/01/07 08:43:49;;;;;;;8.05;4.28;;;3.90;95.40;;;;;;4961823;28;20023;-67
2022/01/07 08:46:15;;;;;;;7.55;4.22;;;4.00;95.40;;;;;;4954014;28;20027;-67
2022/01/07 08:48:40;;;;;;;10.05;4.03;;;4.00;95.30;;;;;;4963910;28;20030;-67
2022/01/07 08:51:07;;;;;;;11.20;4.50;;;4.00;95.30;;;;;;4973057;28;20498;-66
2022/01/07 08:53:33;;;;;;;9.00;5.50;;;4.10;95.30;;;;;;4972050;28;20030;-66
2022/01/07 08:55:59;;;;;;;9.13;4.25;;;4.10;95.20;;;;;;4973061;28;20434;-66
2022/01/07 08:58:25;;;;;;;9.38;4.30;;;4.10;95.30;;;;;;4972416;28;20047;-66
2022/01/07 09:00:50;;;;;;;12.05;4.55;;;4.10;95.30;;;;;;4972718;28;20510;-66
2022/01/07 09:03:16;;;;;;;10.15;4.38;;;4.20;95.20;;;;;;4970855;28;20189;-66
2022/01/07 09:05:41;;;;;;;11.70;4.07;;;4.20;95.20;;;;;;4971945;28;20030;-67
2022/01/07 09:08:09;;;;;;;6.85;4.03;;;4.30;95.20;;;;;;4971020;28;20102;-66
2022/01/07 09:10:35;;;;;;;10.25;4.40;;;4.30;95.40;;;;;;4973139;28;20086;-66
2022/01/07 09:13:00;;;;;;;9.23;4.53;;;4.30;95.10;;;;;;4972311;28;20039;-66
2022/01/07 09:15:26;;;;;;;11.40;4.60;;;4.30;95.20;;;;;;4972865;28;20022;-66
2022/01/07 09:17:51;;;;;;;12.02;4.80;;;4.40;95.20;;;;;;4971995;28;20459;-67
2022/01/07 09:20:17;;;;;;;8.82;4.25;;;4.40;95.20;;;;;;4972770;28;20051;-66
2022/01/07 09:22:42;;;;;;;12.30;5.30;;;4.50;95.20;;;;;;4971497;28;20023;-67
2022/01/07 09:25:08;;;;;;;9.02;4.20;;;4.50;95.40;;;;;;4973066;28;20033;-67
2022/01/07 09:27:34;;;;;;;6.47;4.03;;;4.60;95.20;;;;;;4971843;28;20558;-66
2022/01/07 09:30:00;;;;;;;7.38;4.28;;;4.60;95.20;;;;;;4972634;28;20054;-66
2022/01/07 09:32:25;;;;;;;10.00;3.83;;;4.60;95.20;;;;;;4969081;28;20019;-66
2022/01/07 09:34:51;;;;;;;11.30;4.72;;;4.70;95.10;;;;;;4972539;28;20057;-67
2022/01/07 09:37:16;;;;;;;8.85;4.10;;;4.80;95.10;;;;;;4972505;28;20176;-66
2022/01/07 09:39:42;;;;;;;11.73;4.82;;;4.80;95.10;;;;;;4972418;28;20499;-66
2022/01/07 09:42:08;;;;;;;9.38;4.68;;;4.80;95.00;;;;;;4973016;28;20196;-66
2022/01/07 09:44:38;;;;;;;11.65;4.90;;;4.90;95.00;;;;;;4972409;28;20089;-66
2022/01/07 09:47:04;;;;;;;9.98;4.68;;;4.80;94.90;;;;;;4972419;28;20023;-66
2022/01/07 09:49:33;;;;;;;9.18;4.55;;;4.90;94.80;;;;;;4971643;28;20142;-66
2022/01/07 09:52:01;;;;;;;18.45;5.95;;;5.00;94.80;;;;;;4970704;28;20054;-66
2022/01/07 09:54:26;;;;;;;13.02;5.25;;;5.00;94.80;;;;;;4971469;28;20031;-66
2022/01/07 09:56:52;;;;;;;9.80;4.47;;;5.00;94.70;;;;;;4972465;28;20073;-66
2022/01/07 09:59:18;;;;;;;12.30;4.90;;;5.00;94.70;;;;;;4963433;28;20414;-66
2022/01/07 10:01:54;;;;;;;11.43;4.65;;;5.10;94.80;;;;;;4952217;28;20059;-66
2022/01/07 10:04:33;;;;;;;8.25;4.88;;;5.10;94.70;;;;;;4971387;28;20390;-67
2022/01/07 10:07:25;;;;;;;12.95;5.13;;;5.20;94.70;;;;;;4971685;28;20042;-71
2022/01/07 10:10:07;;;;;;;11.10;4.55;;;5.30;94.70;;;;;;4966807;28;20068;-66
2022/01/07 10:13:03;;;;;;;7.40;4.50;;;5.40;94.70;;;;;;4967897;28;20035;-66
2022/01/07 10:15:31;;;;;;;10.85;4.63;;;5.40;94.60;;;;;;4971470;28;20027;-66
2022/01/07 10:18:05;;;;;;;8.68;4.85;;;5.40;94.50;;;;;;4970831;28;20058;-66
2022/01/07 10:20:40;;;;;;;10.95;4.70;;;5.50;94.50;;;;;;4972085;28;20580;-66
2022/01/07 10:23:15;;;;;;;11.80;4.72;;;5.50;94.50;;;;;;4971602;28;20034;-66
2022/01/07 10:25:46;;;;;;;14.82;5.55;;;5.50;94.40;;;;;;4971955;28;20125;-66
2022/01/07 10:28:15;;;;;;;10.93;5.75;;;5.60;94.50;;;;;;4971741;28;20066;-66
2022/01/07 10:30:42;;;;;;;10.25;5.13;;;5.70;94.50;;;;;;4961639;28;20054;-65
2022/01/07 10:33:27;;;;;;;10.05;5.57;;;5.70;94.40;;;;;;4965459;28;20410;-66
2022/01/07 10:35:58;;;;;;;10.25;5.38;;;5.80;94.30;;;;;;4967145;28;20030;-66
2022/01/07 10:38:29;;;;;;;13.90;5.63;;;5.80;94.30;;;;;;4971720;28;20031;-67
2022/01/07 10:40:59;;;;;;;6.88;4.55;;;5.90;94.40;;;;;;4971555;28;20039;-66
2022/01/07 10:43:36;;;;;;;9.05;4.72;;;6.00;94.40;;;;;;4970544;28;20027;-66
2022/01/07 10:46:12;;;;;;;9.80;4.30;;;6.10;94.10;;;;;;4971658;28;20081;-68
2022/01/07 10:48:43;;;;;;;12.40;4.45;;;6.00;94.00;;;;;;4973606;28;20034;-67
2022/01/07 10:51:15;;;;;;;9.25;4.40;;;6.10;94.00;;;;;;4990691;28;20046;-67
2022/01/07 10:53:46;;;;;;;12.57;5.28;;;6.10;93.90;;;;;;4972616;28;20031;-68
2022/01/07 10:56:16;;;;;;;14.50;6.88;;;6.10;93.80;;;;;;4971598;28;20027;-69
2022/01/07 10:59:01;;;;;;;11.10;5.32;;;6.20;93.80;;;;;;4970620;28;20085;-65
2022/01/07 11:01:26;;;;;;;13.65;5.65;;;6.20;93.70;;;;;;4970519;28;20140;-66
2022/01/07 11:03:55;;;;;;;10.90;5.70;;;6.20;93.70;;;;;;4973550;28;20490;-67
2022/01/07 11:06:22;;;;;;;9.55;4.68;;;6.30;93.70;;;;;;4987813;28;20034;-67
2022/01/07 11:08:50;;;;;;;10.23;4.95;;;6.30;93.60;;;;;;4971290;28;20486;-67
2022/01/07 11:11:15;;;;;;;10.52;4.85;;;6.40;93.40;;;;;;4972337;28;20448;-68
2022/01/07 11:13:42;;;;;;;12.05;4.53;;;6.30;93.30;;;;;;4963690;28;20069;-68
2022/01/07 11:16:08;;;;;;;10.38;5.22;;;6.40;93.30;;;;;;4977057;28;20041;-68
2022/01/07 11:18:37;;;;;;;11.32;5.40;;;6.40;93.30;;;;;;4983446;28;20482;-68
2022/01/07 11:21:03;;;;;;;8.70;5.00;;;6.50;93.20;;;;;;4974489;28;20045;-68
2022/01/07 11:23:29;;;;;;;9.43;4.85;;;6.40;93.10;;;;;;4974561;28;20030;-68
2022/01/07 11:25:59;;;;;;;12.68;5.38;;;6.40;93.10;;;;;;4974730;28;20027;-68
2022/01/07 11:28:25;;;;;;;8.88;5.05;;;6.40;93.00;;;;;;4967595;28;20394;-68
2022/01/07 11:31:01;;;;;;;12.15;5.28;;;6.50;93.10;;;;;;4973645;28;20030;-68
2022/01/07 11:33:27;;;;;;;12.95;5.78;;;6.50;93.10;;;;;;4972809;28;20059;-67
2022/01/07 11:35:52;;;;;;;9.88;4.45;;;6.50;92.90;;;;;;4972486;28;20054;-67
2022/01/07 11:38:32;;;;;;;11.40;4.68;;;6.50;93.00;;;;;;4971619;28;20087;-68
2022/01/07 11:40:58;;;;;;;9.43;4.65;;;6.40;92.80;;;;;;4970350;28;20035;-68
2022/01/07 11:43:31;;;;;;;10.02;4.80;;;6.50;92.90;;;;;;4969340;28;20098;-68
2022/01/07 11:46:20;;;;;;;12.02;5.75;;;6.50;92.90;;;;;;4974011;28;20043;-68
2022/01/07 11:48:45;;;;;;;11.43;4.85;;;6.50;93.00;;;;;;4973709;28;20039;-68
2022/01/07 11:51:14;;;;;;;9.50;4.45;;;6.50;93.00;;;;;;4974105;28;20023;-67
2022/01/07 11:53:39;;;;;;;8.63;4.13;;;6.50;92.90;;;;;;4968660;28;20027;-68
2022/01/07 11:56:06;;;;;;;10.30;4.80;;;6.60;92.90;;;;;;4974202;28;20043;-68
2022/01/07 11:58:47;;;;;;;11.10;5.00;;;6.60;92.90;;;;;;4964965;28;20049;-69
2022/01/07 12:01:29;;;;;;;9.23;4.75;;;6.60;92.90;;;;;;4965061;28;20053;-69
2022/01/07 12:03:58;;;;;;;9.98;4.78;;;6.60;92.90;;;;;;4973786;28;20026;-68
2022/01/07 12:06:23;;;;;;;10.85;4.93;;;6.60;92.90;;;;;;4973276;28;20042;-68
2022/01/07 12:09:05;;;;;;;11.50;5.18;;;6.60;92.90;;;;;;4972876;28;20093;-69
2022/01/07 12:11:36;;;;;;;13.70;5.40;;;6.60;93.00;;;;;;4974183;28;20030;-68
2022/01/07 12:14:06;;;;;;;9.43;4.93;;;6.70;93.00;;;;;;4973170;28;20037;-68
2022/01/07 12:16:33;;;;;;;10.70;4.60;;;6.60;93.00;;;;;;4974272;28;20490;-66
2022/01/07 12:21:31;;;;;;;10.02;4.88;;;6.50;93.00;;;;;;4971780;28;20043;-65
2022/01/07 12:24:07;;;;;;;11.05;5.55;;;6.60;93.20;;;;;;4974572;28;20031;-67
2022/01/07 12:26:33;;;;;;;12.90;5.35;;;6.60;93.10;;;;;;4968196;28;20023;-68
2022/01/07 12:28:58;;;;;;;15.43;5.70;;;6.60;93.00;;;;;;4974252;28;20389;-69
2022/01/07 12:31:24;;;;;;;11.32;6.13;;;6.60;93.30;;;;;;4970352;28;20019;-67
2022/01/07 12:33:55;;;;;;;12.85;5.25;;;6.50;93.00;;;;;;4974048;28;20487;-69
2022/01/07 12:36:27;;;;;;;13.38;4.93;;;6.50;93.10;;;;;;4969317;28;20054;-69
2022/01/07 12:39:03;;;;;;;9.77;4.97;;;6.50;93.10;;;;;;4971072;28;20039;-68
2022/01/07 12:41:29;;;;;;;12.07;5.35;;;6.50;93.20;;;;;;4984718;28;20085;-69
2022/01/07 12:44:05;;;;;;;10.60;4.82;;;6.50;93.20;;;;;;4972733;28;20034;-66
2022/01/07 12:46:30;;;;;;;8.65;4.85;;;6.60;93.20;;;;;;4972191;28;20026;-67
2022/01/07 12:48:56;;;;;;;16.15;4.90;;;6.60;93.20;;;;;;4973500;28;20057;-67
2022/01/07 12:51:22;;;;;;;12.15;5.60;;;6.60;93.20;;;;;;4973011;28;20438;-66
2022/01/07 12:54:05;;;;;;;11.43;6.13;;;6.60;93.30;;;;;;4973605;28;20039;-67
2022/01/07 12:56:33;;;;;;;9.30;5.07;;;6.60;93.40;;;;;;4972137;28;20027;-66
2022/01/07 12:59:10;;;;;;;10.68;5.88;;;6.50;93.40;;;;;;4969860;28;20058;-66
2022/01/07 13:01:35;;;;;;;12.57;5.82;;;6.60;93.50;;;;;;4971708;28;20054;-66
2022/01/07 13:04:07;;;;;;;11.23;5.72;;;6.60;93.50;;;;;;4954691;28;20051;-67
2022/01/07 13:06:50;;;;;;;11.35;5.82;;;6.60;93.60;;;;;;4954889;28;20034;-67